Time;durP1;ratioP1;P1;durP2;ratioP2;P2;SDS_P1;SDS_P2;PMS_P1;PMS_P2;Temp;Humidity;BMP_temperature;BMP_pressure;BME280_temperature;BME280_humidity;BME280_pressure;Samples;Min_cycle;Max_cycle;Signal;HPM_P1;HPM_P2
2023/05/25 00:00:11;;;;;;;19.15;4.03;;;11.40;99.90;;;;;;4999608;28;20065;-84
2023/05/25 00:03:02;;;;;;;11.50;3.97;;;11.40;99.90;;;;;;5017886;28;20053;-83
2023/05/25 00:05:49;;;;;;;11.48;3.83;;;11.40;99.90;;;;;;4996581;28;20050;-82
2023/05/25 00:08:35;;;;;;;14.60;3.40;;;11.40;99.90;;;;;;5014919;28;20053;-84
2023/05/25 00:11:22;;;;;;;15.55;3.58;;;11.40;99.90;;;;;;5010410;28;20050;-84
2023/05/25 00:14:08;;;;;;;13.38;3.33;;;11.30;99.90;;;;;;4992022;28;20133;-83
2023/05/25 00:16:54;;;;;;;14.05;4.53;;;11.30;99.90;;;;;;5012998;28;20058;-84
2023/05/25 00:19:43;;;;;;;12.40;3.28;;;11.40;99.90;;;;;;5011810;28;20092;-82
2023/05/25 00:22:29;;;;;;;12.98;4.25;;;11.40;99.90;;;;;;5013314;28;20053;-83
2023/05/25 00:25:15;;;;;;;25.98;5.13;;;11.40;99.90;;;;;;5013144;28;20049;-83
2023/05/25 00:28:03;;;;;;;10.85;3.45;;;11.40;99.90;;;;;;5013301;28;20058;-86
2023/05/25 00:30:49;;;;;;;15.13;4.05;;;11.40;99.90;;;;;;5012414;28;20062;-88
2023/05/25 00:33:35;;;;;;;14.25;4.10;;;11.40;99.90;;;;;;5011901;28;20151;-83
2023/05/25 00:36:22;;;;;;;13.95;3.47;;;11.40;99.90;;;;;;5011727;28;20060;-83
2023/05/25 00:39:09;;;;;;;15.85;4.72;;;11.40;99.90;;;;;;5012498;28;20049;-83
2023/05/25 00:41:56;;;;;;;15.55;4.75;;;11.40;99.90;;;;;;4995136;28;20065;-82
2023/05/25 00:44:42;;;;;;;18.48;4.03;;;11.40;99.90;;;;;;4994268;28;20441;-83
2023/05/25 00:47:29;;;;;;;14.82;3.70;;;11.40;99.90;;;;;;5009835;28;20136;-83
2023/05/25 00:50:18;;;;;;;31.00;4.43;;;11.40;99.90;;;;;;5011357;28;20053;-82
2023/05/25 00:53:05;;;;;;;18.38;4.00;;;11.40;99.90;;;;;;4993735;28;20053;-83
2023/05/25 00:56:16;;;;;;;16.30;4.75;;;11.40;99.90;;;;;;5010974;28;20060;-83
2023/05/25 00:59:06;;;;;;;18.48;3.63;;;11.40;99.90;;;;;;4994101;28;20057;-83
2023/05/25 01:01:54;;;;;;;14.65;4.35;;;11.50;99.90;;;;;;5011932;28;20046;-83
2023/05/25 01:04:44;;;;;;;13.75;3.92;;;11.50;99.90;;;;;;4994702;28;20462;-85
2023/05/25 01:07:31;;;;;;;17.05;4.45;;;11.50;99.90;;;;;;5012660;28;20144;-83
2023/05/25 01:10:20;;;;;;;18.08;4.03;;;11.50;99.90;;;;;;4994264;28;20514;-82
2023/05/25 01:13:08;;;;;;;19.52;4.45;;;11.50;99.90;;;;;;5010678;28;20058;-82
2023/05/25 01:15:55;;;;;;;16.05;3.80;;;11.50;99.90;;;;;;5011716;28;20053;-82
2023/05/25 01:18:41;;;;;;;18.98;5.60;;;11.50;99.90;;;;;;5011561;28;20502;-82
2023/05/25 01:21:30;;;;;;;14.75;3.88;;;11.50;99.90;;;;;;4994233;28;20090;-82
2023/05/25 01:24:35;;;;;;;17.92;4.43;;;11.50;99.90;;;;;;5011177;28;20050;-83
2023/05/25 01:27:31;;;;;;;20.57;5.73;;;11.50;99.90;;;;;;5011112;28;20046;-83
2023/05/25 01:30:18;;;;;;;15.95;4.72;;;11.50;99.90;;;;;;5011934;28;20295;-83
2023/05/25 01:33:06;;;;;;;18.02;4.20;;;11.50;99.90;;;;;;4994480;28;20054;-83
2023/05/25 01:35:52;;;;;;;15.93;4.55;;;11.50;99.90;;;;;;5011066;28;20490;-83
2023/05/25 01:38:38;;;;;;;20.13;5.22;;;11.50;99.90;;;;;;5010754;28;20458;-83
2023/05/25 01:41:25;;;;;;;19.27;4.65;;;11.60;99.90;;;;;;5009333;28;20093;-85
2023/05/25 01:44:13;;;;;;;12.50;3.75;;;11.60;99.90;;;;;;4997967;28;20391;-82
2023/05/25 01:47:22;;;;;;;16.67;4.65;;;11.60;99.90;;;;;;5010793;28;20108;-83
2023/05/25 01:50:46;;;;;;;17.65;3.70;;;11.60;99.90;;;;;;5010983;28;20490;-82
2023/05/25 01:53:42;;;;;;;14.38;4.20;;;11.60;99.90;;;;;;4993813;28;20050;-83
2023/05/25 01:56:30;;;;;;;27.38;4.82;;;11.50;99.90;;;;;;4992768;28;20080;-83
2023/05/25 01:59:20;;;;;;;15.60;3.88;;;11.50;99.90;;;;;;4992822;28;20062;-83
2023/05/25 02:02:06;;;;;;;16.70;4.38;;;11.50;99.90;;;;;;5010511;28;20119;-82
2023/05/25 02:04:53;;;;;;;20.70;3.92;;;11.50;99.90;;;;;;4995813;28;20084;-83
2023/05/25 02:07:40;;;;;;;13.65;4.10;;;11.40;99.90;;;;;;5010016;28;20056;-82
2023/05/25 02:10:27;;;;;;;16.45;4.75;;;11.40;99.90;;;;;;5010902;28;20061;-83
2023/05/25 02:13:13;;;;;;;14.90;4.22;;;11.40;99.90;;;;;;5010238;28;20109;-82
2023/05/25 02:15:59;;;;;;;17.02;4.00;;;11.40;99.90;;;;;;5009281;28;20053;-83
2023/05/25 02:18:46;;;;;;;16.00;4.68;;;11.30;99.90;;;;;;5008410;28;20060;-83
2023/05/25 02:21:32;;;;;;;14.23;4.03;;;11.30;99.90;;;;;;5011029;28;20042;-83
2023/05/25 02:24:18;;;;;;;12.93;4.63;;;11.30;99.90;;;;;;4979422;28;20050;-83
2023/05/25 02:27:05;;;;;;;14.38;5.10;;;11.30;99.90;;;;;;4992786;28;20106;-83
2023/05/25 02:29:52;;;;;;;11.93;3.65;;;11.20;99.90;;;;;;5010467;28;20107;-82
2023/05/25 02:32:39;;;;;;;15.25;4.80;;;11.20;99.90;;;;;;4995425;28;20057;-83
2023/05/25 02:35:25;;;;;;;12.40;4.45;;;11.20;99.90;;;;;;5009902;28;20053;-82
2023/05/25 02:38:12;;;;;;;19.08;4.50;;;11.20;99.90;;;;;;5007943;28;20060;-82
2023/05/25 02:40:58;;;;;;;14.35;3.53;;;11.20;99.90;;;;;;5010681;28;20050;-83
2023/05/25 02:43:44;;;;;;;23.08;5.53;;;11.20;99.90;;;;;;5010058;28;20050;-86
2023/05/25 02:46:32;;;;;;;13.55;4.45;;;11.20;99.90;;;;;;5011069;28;20619;-83
2023/05/25 02:49:18;;;;;;;13.02;4.60;;;11.20;99.90;;;;;;4992578;28;20050;-82
2023/05/25 02:52:04;;;;;;;17.00;4.70;;;11.10;99.90;;;;;;5008366;28;20060;-83
2023/05/25 02:54:51;;;;;;;14.60;4.95;;;11.20;99.90;;;;;;5008608;28;20136;-83
2023/05/25 02:57:37;;;;;;;20.77;5.15;;;11.20;99.90;;;;;;5008180;28;20422;-84
2023/05/25 03:00:23;;;;;;;21.52;4.70;;;11.10;99.90;;;;;;5010321;28;20049;-84
2023/05/25 03:03:09;;;;;;;17.63;5.50;;;11.20;99.90;;;;;;5008815;28;20409;-82
2023/05/25 03:05:56;;;;;;;11.40;4.20;;;11.10;99.90;;;;;;4979878;28;20069;-83
2023/05/25 03:08:42;;;;;;;17.13;5.53;;;11.10;99.90;;;;;;4978822;28;20054;-83
2023/05/25 03:11:30;;;;;;;15.73;5.00;;;11.10;99.90;;;;;;5007480;28;20140;-83
2023/05/25 03:14:17;;;;;;;11.80;4.53;;;11.10;99.90;;;;;;4991582;28;20050;-81
2023/05/25 03:17:03;;;;;;;19.80;5.10;;;11.10;99.90;;;;;;4991082;28;20120;-84
2023/05/25 03:19:49;;;;;;;11.60;4.05;;;11.10;99.90;;;;;;5009332;28;20097;-81
2023/05/25 03:22:35;;;;;;;20.58;4.93;;;11.10;99.90;;;;;;5009923;28;20403;-81
2023/05/25 03:25:21;;;;;;;19.67;4.93;;;11.10;99.90;;;;;;5010157;28;20410;-82
2023/05/25 03:28:07;;;;;;;17.80;4.65;;;11.10;99.90;;;;;;5009718;28;20058;-84
2023/05/25 03:30:53;;;;;;;20.27;4.97;;;11.10;99.90;;;;;;5009071;28;20097;-83
2023/05/25 03:33:39;;;;;;;19.35;4.72;;;11.10;99.90;;;;;;5008682;28;20050;-82
2023/05/25 03:36:26;;;;;;;17.80;4.50;;;11.20;99.90;;;;;;5007103;28;20585;-82
2023/05/25 03:39:14;;;;;;;12.63;4.18;;;11.20;99.90;;;;;;5007501;28;20726;-82
2023/05/25 03:42:00;;;;;;;16.95;4.93;;;11.20;99.90;;;;;;5009866;28;20107;-81
2023/05/25 03:44:46;;;;;;;15.73;5.07;;;11.20;99.90;;;;;;4992252;28;20503;-80
2023/05/25 03:47:33;;;;;;;18.48;5.00;;;11.20;99.90;;;;;;5008813;28;20057;-82
2023/05/25 03:50:20;;;;;;;19.30;5.75;;;11.30;99.90;;;;;;5010786;28;20049;-84
2023/05/25 03:53:06;;;;;;;19.65;5.82;;;11.30;99.90;;;;;;4981660;28;20046;-83
2023/05/25 03:55:52;;;;;;;16.13;4.57;;;11.30;99.90;;;;;;4995451;28;20100;-84
2023/05/25 03:58:38;;;;;;;19.35;4.68;;;11.30;99.90;;;;;;5012637;28;20141;-83
2023/05/25 04:01:25;;;;;;;15.27;5.07;;;11.30;99.90;;;;;;5013443;28;20078;-85
2023/05/25 04:04:11;;;;;;;20.45;4.80;;;11.30;99.90;;;;;;5013221;28;20050;-82
2023/05/25 04:06:57;;;;;;;19.33;5.78;;;11.30;99.90;;;;;;4995050;28;20100;-84
2023/05/25 04:09:43;;;;;;;19.90;5.20;;;11.30;99.90;;;;;;5010912;28;20064;-83
2023/05/25 04:12:29;;;;;;;19.50;5.00;;;11.30;99.90;;;;;;5012105;28;20103;-84
2023/05/25 04:15:16;;;;;;;15.35;4.75;;;11.30;99.90;;;;;;5012700;28;20046;-81
2023/05/25 04:18:02;;;;;;;17.05;5.85;;;11.30;99.90;;;;;;4981738;28;20057;-83
2023/05/25 04:20:48;;;;;;;15.27;4.63;;;11.30;99.90;;;;;;5013385;28;20045;-81
2023/05/25 04:23:34;;;;;;;19.88;6.05;;;11.30;99.90;;;;;;4981163;28;20596;-82
2023/05/25 04:26:20;;;;;;;19.13;4.93;;;11.40;99.90;;;;;;4995350;28;20049;-81
2023/05/25 04:29:08;;;;;;;14.60;4.15;;;11.40;99.90;;;;;;4994737;28;20054;-81
2023/05/25 04:31:54;;;;;;;19.10;5.20;;;11.50;99.90;;;;;;4995417;28;20494;-82
2023/05/25 04:34:41;;;;;;;12.63;5.68;;;11.60;99.90;;;;;;5010663;28;20377;-81
2023/05/25 04:37:27;;;;;;;17.63;4.82;;;11.60;99.90;;;;;;5010741;28;20057;-84
2023/05/25 04:40:14;;;;;;;16.98;4.38;;;11.70;99.90;;;;;;5012279;28;20269;-82
2023/05/25 04:43:00;;;;;;;16.27;4.40;;;11.70;99.90;;;;;;4995434;28;20137;-81
2023/05/25 04:45:46;;;;;;;18.77;4.90;;;11.80;99.90;;;;;;5010890;28;20064;-81
2023/05/25 04:48:33;;;;;;;15.45;3.83;;;11.90;99.90;;;;;;5010885;28;20054;-86
2023/05/25 04:51:21;;;;;;;17.05;4.07;;;11.90;99.90;;;;;;5012249;28;20069;-85
2023/05/25 04:54:07;;;;;;;17.20;5.63;;;12.00;99.90;;;;;;5012349;28;20563;-85
2023/05/25 04:56:54;;;;;;;18.35;4.35;;;12.00;99.90;;;;;;5009489;28;20088;-86
2023/05/25 04:59:40;;;;;;;19.08;4.20;;;12.10;99.90;;;;;;4980441;28;20560;-86
2023/05/25 05:02:26;;;;;;;10.65;3.83;;;12.20;99.90;;;;;;5012154;28;20060;-86
2023/05/25 05:05:12;;;;;;;21.40;4.15;;;12.20;99.90;;;;;;4993794;28;20054;-85
2023/05/25 05:07:59;;;;;;;16.80;4.00;;;12.30;99.90;;;;;;5011759;28;20042;-86
2023/05/25 05:10:45;;;;;;;12.32;3.53;;;12.30;99.90;;;;;;5011632;28;20518;-85
2023/05/25 05:13:31;;;;;;;20.10;4.85;;;12.40;99.90;;;;;;4994069;28;20104;-85
2023/05/25 05:16:17;;;;;;;13.57;3.75;;;12.50;99.90;;;;;;5010082;28;20054;-86
2023/05/25 05:19:03;;;;;;;19.70;4.47;;;12.40;99.90;;;;;;5011232;28;20045;-85
2023/05/25 05:21:50;;;;;;;16.48;4.07;;;12.50;99.90;;;;;;5011152;28;20058;-88
2023/05/25 05:24:36;;;;;;;16.60;5.28;;;12.60;99.90;;;;;;4993815;28;20137;-84
2023/05/25 05:27:22;;;;;;;15.60;3.63;;;12.60;99.90;;;;;;5010435;28;20447;-86
2023/05/25 05:30:08;;;;;;;23.85;4.15;;;12.60;99.90;;;;;;4993485;28;20188;-86
2023/05/25 05:32:54;;;;;;;10.60;3.20;;;12.70;99.90;;;;;;4994178;28;20054;-85
2023/05/25 05:35:41;;;;;;;12.95;3.38;;;12.80;99.90;;;;;;5009226;28;20172;-86
2023/05/25 05:38:27;;;;;;;16.02;2.70;;;12.90;99.90;;;;;;5011153;28;20057;-87
2023/05/25 05:41:13;;;;;;;11.65;3.95;;;12.90;99.90;;;;;;4994194;28;20042;-87
2023/05/25 05:44:00;;;;;;;17.40;3.85;;;12.90;99.90;;;;;;4993647;28;20058;-87
2023/05/25 05:46:46;;;;;;;16.02;3.53;;;13.00;99.90;;;;;;4981097;28;20485;-85
2023/05/25 05:49:33;;;;;;;19.30;4.18;;;12.90;99.90;;;;;;5011003;28;20132;-85
2023/05/25 05:52:19;;;;;;;16.10;3.65;;;12.90;99.90;;;;;;5011666;28;20100;-86
2023/05/25 05:55:05;;;;;;;16.08;3.92;;;13.00;99.90;;;;;;4997712;28;20058;-87
2023/05/25 05:57:51;;;;;;;16.75;3.97;;;13.00;99.90;;;;;;5012044;28;20137;-86
2023/05/25 06:00:37;;;;;;;19.35;4.32;;;13.00;99.90;;;;;;5004450;28;20054;-84
2023/05/25 06:03:24;;;;;;;16.83;4.75;;;13.00;99.90;;;;;;4996890;28;20077;-83
2023/05/25 06:06:10;;;;;;;15.32;4.22;;;13.10;99.90;;;;;;5026546;28;20046;-85
2023/05/25 06:08:56;;;;;;;17.40;4.20;;;13.10;99.90;;;;;;5017186;28;20058;-81
2023/05/25 06:11:42;;;;;;;24.02;5.60;;;13.20;99.90;;;;;;5010944;28;20096;-81
2023/05/25 06:14:28;;;;;;;17.40;4.13;;;13.20;99.90;;;;;;5010531;28;20057;-84
2023/05/25 06:17:14;;;;;;;20.60;5.07;;;13.40;99.90;;;;;;5008316;28;20449;-82
2023/05/25 06:20:00;;;;;;;22.70;5.15;;;13.50;99.90;;;;;;4992482;28;20049;-81
2023/05/25 06:22:46;;;;;;;19.63;4.10;;;13.50;99.90;;;;;;5010073;28;20053;-84
2023/05/25 06:25:32;;;;;;;24.65;5.28;;;13.60;99.90;;;;;;5010184;28;20502;-85
2023/05/25 06:28:22;;;;;;;17.15;4.75;;;13.80;99.90;;;;;;4980270;28;20061;-82
2023/05/25 06:31:08;;;;;;;25.08;4.63;;;13.90;99.90;;;;;;4992150;28;20091;-84
2023/05/25 06:33:54;;;;;;;22.25;5.72;;;14.00;99.90;;;;;;5009767;28;20104;-82
2023/05/25 06:36:40;;;;;;;17.67;4.32;;;14.00;99.90;;;;;;5009611;28;20050;-82
2023/05/25 06:39:26;;;;;;;23.25;4.20;;;14.10;99.90;;;;;;4993394;28;20054;-82
2023/05/25 06:42:12;;;;;;;26.15;4.20;;;14.10;99.90;;;;;;4991432;28;20049;-81
2023/05/25 06:44:58;;;;;;;16.92;3.92;;;14.20;99.90;;;;;;5009821;28;20054;-83
2023/05/25 06:47:44;;;;;;;25.25;3.95;;;14.30;99.90;;;;;;5008003;28;20482;-84
2023/05/25 06:50:30;;;;;;;25.42;4.40;;;14.40;99.90;;;;;;5008946;28;20042;-84
2023/05/25 06:53:17;;;;;;;18.55;4.32;;;14.50;99.90;;;;;;4979426;28;20049;-88
2023/05/25 06:56:03;;;;;;;20.08;5.35;;;14.60;99.90;;;;;;4978478;28;20057;-82
2023/05/25 06:58:49;;;;;;;21.13;4.32;;;14.70;99.90;;;;;;5009937;28;20145;-82
2023/05/25 07:01:36;;;;;;;20.67;4.13;;;15.00;99.90;;;;;;4991891;28;20061;-80
2023/05/25 07:04:22;;;;;;;15.77;4.55;;;15.10;99.90;;;;;;4991826;28;20129;-82
2023/05/25 07:07:08;;;;;;;25.92;4.30;;;15.20;99.90;;;;;;5009335;28;20050;-82
2023/05/25 07:09:54;;;;;;;15.57;4.20;;;15.20;99.90;;;;;;5009859;28;20510;-84
2023/05/25 07:12:40;;;;;;;18.98;4.20;;;15.20;99.90;;;;;;5007579;28;20570;-82
2023/05/25 07:15:26;;;;;;;23.08;5.15;;;15.30;99.90;;;;;;5009982;28;20069;-80
2023/05/25 07:18:13;;;;;;;20.48;4.22;;;15.60;99.90;;;;;;4992263;28;20050;-82
2023/05/25 07:20:59;;;;;;;19.00;4.38;;;15.70;99.90;;;;;;4991660;28;20085;-80
2023/05/25 07:23:45;;;;;;;21.05;5.03;;;15.70;99.90;;;;;;4978176;28;20505;-80
2023/05/25 07:26:32;;;;;;;24.80;4.65;;;15.90;99.90;;;;;;5009463;28;20057;-81
2023/05/25 07:29:18;;;;;;;23.67;3.83;;;16.10;99.90;;;;;;5009549;28;20112;-85
2023/05/25 07:32:05;;;;;;;22.42;4.47;;;16.20;99.90;;;;;;5007781;28;20057;-81
2023/05/25 07:34:51;;;;;;;32.63;6.80;;;16.40;99.90;;;;;;4992378;28;20092;-83
2023/05/25 07:37:37;;;;;;;18.30;4.35;;;16.20;99.90;;;;;;5007392;28;20085;-86
2023/05/25 07:40:23;;;;;;;20.55;4.32;;;16.20;99.90;;;;;;4991311;28;20423;-79
2023/05/25 07:43:09;;;;;;;22.50;4.40;;;16.20;99.90;;;;;;4990528;28;20488;-82
2023/05/25 07:45:56;;;;;;;25.33;4.50;;;16.20;99.90;;;;;;5008679;28;20046;-81
2023/05/25 07:48:42;;;;;;;22.02;4.97;;;16.30;99.90;;;;;;4992954;28;20077;-84
2023/05/25 07:51:31;;;;;;;24.83;5.07;;;16.30;99.90;;;;;;5009056;28;20062;-81
2023/05/25 07:54:17;;;;;;;15.98;3.90;;;16.60;99.90;;;;;;4992355;28;20050;-80
2023/05/25 07:57:03;;;;;;;19.55;4.40;;;16.70;99.90;;;;;;5006879;28;20053;-82
2023/05/25 07:59:50;;;;;;;24.45;4.38;;;16.90;99.90;;;;;;5008879;28;20069;-82
2023/05/25 08:02:36;;;;;;;19.98;4.30;;;17.10;99.80;;;;;;4991645;28;20058;-82
2023/05/25 08:05:22;;;;;;;24.92;4.35;;;17.20;99.40;;;;;;5008859;28;20120;-81
2023/05/25 08:08:09;;;;;;;18.77;4.40;;;17.40;98.60;;;;;;5007749;28;20053;-82
2023/05/25 08:10:55;;;;;;;31.17;7.03;;;17.40;98.10;;;;;;5001391;28;20046;-84
2023/05/25 08:13:41;;;;;;;23.02;5.05;;;17.50;98.20;;;;;;5008369;28;20145;-81
2023/05/25 08:16:27;;;;;;;19.30;4.65;;;17.50;97.80;;;;;;5009283;28;20065;-82
2023/05/25 08:19:14;;;;;;;25.95;5.07;;;17.30;97.30;;;;;;4991251;28;20573;-85
2023/05/25 08:22:00;;;;;;;17.38;3.85;;;17.40;97.40;;;;;;5008096;28;20509;-83
2023/05/25 08:24:47;;;;;;;15.98;4.50;;;17.60;97.60;;;;;;5010324;28;20473;-81
2023/05/25 08:27:33;;;;;;;25.85;4.93;;;17.80;97.50;;;;;;4992052;28;20050;-89
2023/05/25 08:30:19;;;;;;;21.52;4.50;;;18.00;96.60;;;;;;5008043;28;20046;-86
2023/05/25 08:33:06;;;;;;;17.75;4.93;;;18.00;96.50;;;;;;4990688;28;20482;-86
2023/05/25 08:35:52;;;;;;;20.40;4.97;;;18.10;96.40;;;;;;5007555;28;20116;-84
2023/05/25 08:38:38;;;;;;;13.35;4.22;;;18.00;95.70;;;;;;4994232;28;20058;-85
2023/05/25 08:41:24;;;;;;;25.77;5.43;;;18.10;95.70;;;;;;4994419;28;20050;-87
2023/05/25 08:44:13;;;;;;;14.95;4.10;;;18.30;95.60;;;;;;4993581;28;20235;-87
2023/05/25 08:47:06;;;;;;;18.27;4.32;;;18.30;95.30;;;;;;5012554;28;20053;-86
2023/05/25 08:49:54;;;;;;;18.15;4.00;;;18.40;94.00;;;;;;4994289;28;20124;-88
2023/05/25 08:52:47;;;;;;;16.15;4.28;;;18.30;94.40;;;;;;4994766;28;20089;-88
2023/05/25 08:55:36;;;;;;;17.48;3.92;;;18.10;94.30;;;;;;5011793;28;20053;-87
2023/05/25 08:58:29;;;;;;;21.55;4.13;;;18.00;94.60;;;;;;5012252;28;20064;-84
2023/05/25 09:01:19;;;;;;;16.15;4.30;;;18.30;94.60;;;;;;5012246;28;20058;-86
2023/05/25 09:04:06;;;;;;;17.60;4.15;;;18.20;94.20;;;;;;4998099;28;20198;-85
2023/05/25 09:06:52;;;;;;;16.52;4.18;;;18.50;94.30;;;;;;5011158;28;20061;-88
2023/05/25 09:09:39;;;;;;;18.92;4.95;;;18.60;94.20;;;;;;4994660;28;20050;-88
2023/05/25 09:12:29;;;;;;;18.77;4.47;;;18.40;94.40;;;;;;4994637;28;20092;-85
2023/05/25 09:15:15;;;;;;;26.23;5.75;;;18.30;94.10;;;;;;4994501;28;20041;-87
2023/05/25 09:18:01;;;;;;;22.77;5.85;;;18.10;94.30;;;;;;4994547;28;20057;-82
2023/05/25 09:20:47;;;;;;;18.25;4.18;;;17.70;94.70;;;;;;4980452;28;20050;-84
2023/05/25 09:23:35;;;;;;;17.42;4.47;;;17.80;94.60;;;;;;4993462;28;20133;-85
2023/05/25 09:26:22;;;;;;;22.90;4.65;;;17.80;94.40;;;;;;5011559;28;20053;-84
2023/05/25 09:29:08;;;;;;;19.70;4.72;;;17.70;94.90;;;;;;4995140;28;20100;-86
2023/05/25 09:31:55;;;;;;;23.13;5.68;;;17.90;94.90;;;;;;5009746;28;20057;-85
2023/05/25 09:34:47;;;;;;;22.52;5.47;;;18.10;94.40;;;;;;5011291;28;20104;-86
2023/05/25 09:37:35;;;;;;;21.35;4.30;;;18.50;94.30;;;;;;4993956;28;20099;-85
2023/05/25 09:40:21;;;;;;;22.60;5.25;;;18.50;93.60;;;;;;5011273;28;20057;-86
2023/05/25 09:43:07;;;;;;;22.27;4.82;;;18.80;93.60;;;;;;5011263;28;20520;-82
2023/05/25 09:45:53;;;;;;;18.70;4.90;;;18.70;93.40;;;;;;4993548;28;20536;-82
2023/05/25 09:48:40;;;;;;;17.65;3.90;;;18.90;93.10;;;;;;5011517;28;20112;-89
2023/05/25 09:51:29;;;;;;;25.90;5.10;;;18.80;92.30;;;;;;4995877;28;20144;-88
2023/05/25 09:54:15;;;;;;;18.00;4.57;;;18.70;92.30;;;;;;4995721;28;20712;-88
2023/05/25 09:57:04;;;;;;;19.20;5.03;;;19.00;93.10;;;;;;4986658;28;20054;-81
2023/05/25 09:59:50;;;;;;;22.02;4.30;;;19.20;92.70;;;;;;5009869;28;20058;-85
2023/05/25 10:02:36;;;;;;;16.77;4.82;;;19.00;92.30;;;;;;5011203;28;20060;-84
2023/05/25 10:05:22;;;;;;;21.70;5.50;;;19.10;92.10;;;;;;5010610;28;20058;-82
2023/05/25 10:08:10;;;;;;;22.30;5.00;;;19.30;91.90;;;;;;5008886;28;20064;-83
2023/05/25 10:10:56;;;;;;;21.65;5.40;;;19.50;92.00;;;;;;5011310;28;20517;-84
2023/05/25 10:13:45;;;;;;;25.30;5.60;;;19.00;92.10;;;;;;5011142;28;20053;-85
2023/05/25 10:16:33;;;;;;;25.73;5.43;;;18.80;92.10;;;;;;4992802;28;20115;-82
2023/05/25 10:19:42;;;;;;;20.75;4.05;;;19.20;92.60;;;;;;5010208;28;20136;-83
2023/05/25 10:22:45;;;;;;;21.13;5.65;;;19.30;92.00;;;;;;4979143;28;20763;-81
2023/05/25 10:25:43;;;;;;;20.98;4.97;;;19.40;91.90;;;;;;4993133;28;20054;-82
2023/05/25 10:28:34;;;;;;;19.08;4.45;;;19.70;92.20;;;;;;5010242;28;20100;-82
2023/05/25 10:31:20;;;;;;;18.63;4.70;;;19.40;91.00;;;;;;5009803;28;20056;-82
2023/05/25 10:34:07;;;;;;;17.23;4.18;;;19.60;91.20;;;;;;4978926;28;20054;-82
2023/05/25 10:36:55;;;;;;;18.88;4.43;;;19.90;90.90;;;;;;4991489;28;20060;-82
2023/05/25 10:39:44;;;;;;;22.05;4.65;;;20.00;90.70;;;;;;4995333;28;20056;-81
2023/05/25 10:42:33;;;;;;;26.38;5.22;;;19.90;91.00;;;;;;5008754;28;20064;-81
2023/05/25 10:45:20;;;;;;;21.20;5.70;;;20.20;91.20;;;;;;5008734;28;20061;-84
2023/05/25 10:48:06;;;;;;;18.48;4.50;;;20.30;90.90;;;;;;5010698;28;20088;-83
2023/05/25 10:50:52;;;;;;;22.50;5.32;;;19.90;91.20;;;;;;5009585;28;20392;-83
2023/05/25 10:53:46;;;;;;;20.92;5.38;;;19.80;91.30;;;;;;4978930;28;20049;-85
2023/05/25 10:56:32;;;;;;;17.98;4.82;;;19.60;90.40;;;;;;4992060;28;20046;-83
2023/05/25 10:59:28;;;;;;;21.80;5.35;;;19.50;90.70;;;;;;5008958;28;20499;-84
2023/05/25 11:02:14;;;;;;;18.42;4.72;;;19.50;90.60;;;;;;5010221;28;20064;-85
2023/05/25 11:05:26;;;;;;;18.15;4.40;;;19.70;90.50;;;;;;5009406;28;20053;-81
2023/05/25 11:08:15;;;;;;;23.92;5.90;;;19.60;90.50;;;;;;5009474;28;20077;-81
2023/05/25 11:11:01;;;;;;;17.00;5.22;;;19.60;90.90;;;;;;5009092;28;20050;-80
2023/05/25 11:13:48;;;;;;;19.25;4.65;;;19.30;90.80;;;;;;4991687;28;20053;-83
2023/05/25 11:16:36;;;;;;;19.85;4.60;;;19.20;90.80;;;;;;5009767;28;20060;-81
2023/05/25 11:19:22;;;;;;;19.50;5.43;;;19.20;91.10;;;;;;4992486;28;20054;-84
2023/05/25 11:22:21;;;;;;;21.02;4.55;;;19.40;91.10;;;;;;4991413;28;20057;-83
2023/05/25 11:25:35;;;;;;;16.55;4.00;;;19.80;90.60;;;;;;5009820;28;20288;-84
2023/05/25 11:28:21;;;;;;;18.85;5.15;;;20.30;90.60;;;;;;5009933;28;20085;-84
2023/05/25 11:31:08;;;;;;;21.92;5.43;;;20.20;89.70;;;;;;4995634;28;20417;-85
2023/05/25 11:33:59;;;;;;;21.05;4.55;;;20.10;89.60;;;;;;5008529;28;20528;-82
2023/05/25 11:36:45;;;;;;;17.90;5.10;;;19.80;88.80;;;;;;4991390;28;20536;-83
2023/05/25 11:39:31;;;;;;;19.27;4.78;;;20.30;88.80;;;;;;4978850;28;20065;-83
2023/05/25 11:42:23;;;;;;;19.63;4.85;;;20.60;87.30;;;;;;5009981;28;20062;-84
2023/05/25 11:45:15;;;;;;;18.38;4.38;;;20.20;85.80;;;;;;4992578;28;20062;-82
2023/05/25 11:48:03;;;;;;;20.10;5.13;;;20.00;87.40;;;;;;4996771;28;20104;-82
2023/05/25 11:51:03;;;;;;;22.08;5.28;;;20.40;87.40;;;;;;5013433;28;20557;-81
2023/05/25 11:53:50;;;;;;;24.45;5.13;;;20.40;87.10;;;;;;5013161;28;20520;-83
2023/05/25 11:56:36;;;;;;;23.92;4.90;;;20.10;88.00;;;;;;5009109;28;20072;-83
2023/05/25 11:59:22;;;;;;;22.65;4.65;;;20.20;88.30;;;;;;5008799;28;20081;-82
2023/05/25 12:02:08;;;;;;;22.52;5.65;;;20.20;88.40;;;;;;5009254;28;20161;-83
2023/05/25 12:05:00;;;;;;;18.83;4.75;;;20.40;86.80;;;;;;4990657;28;20096;-82
2023/05/25 12:07:46;;;;;;;18.10;3.95;;;20.50;84.80;;;;;;4991473;28;20082;-80
2023/05/25 12:10:32;;;;;;;20.25;5.65;;;20.30;83.40;;;;;;4992259;28;20133;-84
2023/05/25 12:13:19;;;;;;;27.02;5.40;;;20.50;84.70;;;;;;5012918;28;20060;-81
2023/05/25 12:16:05;;;;;;;15.27;4.30;;;20.90;85.70;;;;;;4995503;28;20073;-81
2023/05/25 12:18:53;;;;;;;15.35;5.20;;;21.50;85.00;;;;;;4995636;28;20057;-81
2023/05/25 12:21:40;;;;;;;22.65;4.55;;;21.70;83.00;;;;;;5012754;28;20395;-87
2023/05/25 12:24:26;;;;;;;19.40;4.93;;;21.60;81.40;;;;;;5012407;28;20061;-81
2023/05/25 12:27:16;;;;;;;18.48;4.18;;;21.40;80.90;;;;;;5012347;28;20559;-84
2023/05/25 12:30:04;;;;;;;17.23;4.82;;;21.90;79.30;;;;;;4995066;28;20049;-81
2023/05/25 12:32:58;;;;;;;18.92;4.70;;;21.90;80.30;;;;;;4994874;28;20053;-81
2023/05/25 12:35:48;;;;;;;22.17;5.45;;;22.20;80.60;;;;;;4995887;28;20086;-84
2023/05/25 12:38:34;;;;;;;20.92;5.28;;;22.40;79.50;;;;;;4994606;28;20493;-84
2023/05/25 12:41:20;;;;;;;23.70;5.25;;;22.50;77.50;;;;;;4994654;28;20139;-84
2023/05/25 12:44:20;;;;;;;18.65;4.88;;;22.70;76.60;;;;;;5011764;28;20049;-81
2023/05/25 12:47:10;;;;;;;22.73;4.93;;;22.80;75.40;;;;;;4994706;28;20128;-81
2023/05/25 12:50:15;;;;;;;23.48;5.35;;;23.00;75.70;;;;;;5012044;28;20058;-81
2023/05/25 12:53:02;;;;;;;21.73;4.15;;;23.40;71.80;;;;;;5012294;28;20201;-80
2023/05/25 12:55:48;;;;;;;19.33;4.22;;;23.30;73.20;;;;;;5011832;28;20096;-84
2023/05/25 12:58:34;;;;;;;17.52;4.60;;;23.50;73.30;;;;;;5009966;28;20054;-81
2023/05/25 13:01:20;;;;;;;24.02;5.05;;;23.20;72.00;;;;;;5012155;28;20053;-81
2023/05/25 13:04:06;;;;;;;21.85;4.90;;;23.20;71.60;;;;;;4994966;28;20061;-81
2023/05/25 13:06:53;;;;;;;18.25;4.43;;;22.80;71.10;;;;;;5011533;28;20137;-80
2023/05/25 13:09:39;;;;;;;16.77;4.78;;;22.50;72.20;;;;;;4994076;28;20757;-81
2023/05/25 13:12:25;;;;;;;22.88;5.30;;;22.20;72.90;;;;;;5011619;28;20529;-81
2023/05/25 13:15:11;;;;;;;18.70;4.97;;;22.70;73.20;;;;;;5011394;28;20085;-82
2023/05/25 13:17:57;;;;;;;24.55;4.72;;;22.90;72.70;;;;;;5011369;28;20084;-81
2023/05/25 13:20:44;;;;;;;16.02;4.60;;;23.40;72.30;;;;;;4981286;28;20053;-81
2023/05/25 13:23:30;;;;;;;19.15;3.35;;;23.30;69.70;;;;;;5009657;28;20532;-81
2023/05/25 13:26:16;;;;;;;15.13;4.18;;;23.90;70.30;;;;;;4993337;28;20451;-80
2023/05/25 13:29:02;;;;;;;24.55;4.95;;;23.70;67.90;;;;;;5010708;28;20085;-80
2023/05/25 13:31:48;;;;;;;15.98;4.43;;;23.70;67.90;;;;;;5010217;28;20481;-82
2023/05/25 13:34:34;;;;;;;18.63;4.68;;;23.70;67.40;;;;;;5010545;28;20061;-82
2023/05/25 13:37:20;;;;;;;16.05;5.10;;;23.70;67.20;;;;;;5010624;28;20058;-81
2023/05/25 13:40:06;;;;;;;16.83;5.07;;;24.00;67.50;;;;;;5009820;28;20165;-81
2023/05/25 13:42:52;;;;;;;22.83;5.05;;;24.10;66.40;;;;;;4980649;28;20049;-82
2023/05/25 13:45:38;;;;;;;20.63;4.18;;;23.80;65.10;;;;;;5011548;28;20682;-81
2023/05/25 13:48:24;;;;;;;14.25;4.53;;;23.80;65.30;;;;;;5011338;28;20138;-84
2023/05/25 13:51:10;;;;;;;17.50;4.68;;;23.90;65.40;;;;;;5010807;28;20506;-85
2023/05/25 13:53:56;;;;;;;18.88;4.00;;;23.80;64.80;;;;;;4993573;28;20054;-83
2023/05/25 13:56:43;;;;;;;18.23;4.95;;;23.90;65.90;;;;;;5010521;28;20049;-85
2023/05/25 13:59:29;;;;;;;23.77;5.30;;;24.20;64.40;;;;;;5009869;28;20440;-81
2023/05/25 14:02:15;;;;;;;19.70;4.50;;;23.60;64.50;;;;;;5011107;28;20073;-82
2023/05/25 14:05:01;;;;;;;16.58;4.35;;;23.40;64.50;;;;;;4996035;28;20502;-82
2023/05/25 14:07:47;;;;;;;20.08;5.25;;;24.00;63.60;;;;;;4992770;28;20088;-90
2023/05/25 14:10:33;;;;;;;19.77;5.25;;;23.50;64.80;;;;;;5010214;28;20056;-87
2023/05/25 14:13:19;;;;;;;17.15;4.40;;;23.20;65.20;;;;;;5010130;28;20546;-86
2023/05/25 14:16:05;;;;;;;19.67;5.00;;;23.00;65.20;;;;;;4994061;28;20054;-88
2023/05/25 14:18:51;;;;;;;34.30;5.68;;;23.30;65.10;;;;;;5009449;28;20049;-87